createdAt,value
2018-07-27T00:00:23.473Z,27.20
2018-07-27T00:02:51.802Z,27.20
2018-07-27T00:05:20.171Z,27.00
2018-07-27T00:07:48.513Z,27.00
2018-07-27T00:10:18.225Z,27.10
2018-07-27T00:12:46.733Z,27.00
2018-07-27T00:15:15.094Z,27.10
2018-07-27T00:17:43.453Z,27.00
2018-07-27T00:20:11.835Z,27.00
2018-07-27T00:22:40.263Z,27.10
2018-07-27T00:25:08.615Z,27.10
2018-07-27T00:27:37.026Z,26.90
2018-07-27T00:30:05.863Z,27.00
2018-07-27T00:32:34.195Z,27.10
2018-07-27T00:35:02.538Z,27.10
2018-07-27T00:37:30.870Z,27.00
2018-07-27T00:39:59.209Z,27.00
2018-07-27T00:42:27.545Z,26.90
2018-07-27T00:44:55.882Z,26.80
2018-07-27T00:47:24.217Z,26.70
2018-07-27T00:49:52.561Z,26.60
2018-07-27T00:52:20.901Z,26.50
2018-07-27T00:54:49.230Z,26.50
2018-07-27T00:57:17.596Z,26.50
2018-07-27T00:59:45.902Z,26.50
2018-07-27T01:02:14.325Z,26.60
2018-07-27T01:04:42.709Z,26.50
2018-07-27T01:07:11.245Z,26.40
2018-07-27T01:09:39.617Z,26.50
2018-07-27T01:12:08.045Z,26.50
2018-07-27T01:14:36.448Z,26.50
2018-07-27T01:17:04.884Z,26.50
2018-07-27T01:19:33.308Z,26.60
2018-07-27T01:22:01.705Z,26.40
2018-07-27T01:24:30.125Z,26.50
2018-07-27T01:26:58.517Z,26.50
2018-07-27T01:29:26.951Z,26.30
2018-07-27T01:31:55.357Z,26.20
2018-07-27T01:34:23.742Z,26.30
2018-07-27T01:36:52.154Z,26.20
2018-07-27T01:39:20.537Z,26.10
2018-07-27T01:41:48.973Z,26.10
2018-07-27T01:44:17.397Z,26.10
2018-07-27T01:46:45.817Z,26.10
2018-07-27T01:49:14.193Z,26.10
2018-07-27T01:51:42.628Z,26.00
2018-07-27T01:56:39.146Z,26.20
2018-07-27T01:59:07.559Z,26.30
2018-07-27T02:01:35.977Z,26.20
2018-07-27T02:04:04.378Z,26.40
2018-07-27T02:06:32.770Z,26.40
2018-07-27T02:09:01.341Z,26.50
2018-07-27T02:11:29.766Z,26.50
2018-07-27T02:13:58.155Z,26.60
2018-07-27T02:16:26.575Z,26.60
2018-07-27T02:18:54.984Z,26.50
2018-07-27T02:21:23.324Z,26.50
2018-07-27T02:26:19.785Z,26.40
2018-07-27T02:28:48.155Z,26.50
2018-07-27T02:31:16.767Z,26.40
2018-07-27T02:33:45.145Z,26.30
2018-07-27T02:36:13.505Z,26.10
2018-07-27T02:38:41.907Z,26.00
2018-07-27T02:41:10.277Z,25.90
2018-07-27T02:43:38.686Z,25.80
2018-07-27T02:46:07.086Z,25.70
2018-07-27T02:48:35.435Z,25.60
2018-07-27T02:51:03.815Z,25.70
2018-07-27T02:53:32.168Z,25.70
2018-07-27T02:56:00.555Z,25.60
2018-07-27T02:58:28.898Z,25.50
2018-07-27T03:00:57.294Z,25.40
2018-07-27T03:03:25.670Z,25.50
2018-07-27T03:05:54.021Z,25.40
2018-07-27T03:08:22.418Z,25.30
2018-07-27T03:10:50.789Z,25.40
2018-07-27T03:13:19.120Z,25.40
2018-07-27T03:15:47.523Z,25.50
2018-07-27T03:18:15.885Z,25.30
2018-07-27T03:20:44.333Z,25.20
2018-07-27T03:23:12.869Z,25.20
2018-07-27T03:25:41.213Z,25.10
2018-07-27T03:28:09.620Z,25.20
2018-07-27T03:30:38.158Z,25.10
2018-07-27T03:33:06.505Z,25.10
2018-07-27T03:35:34.874Z,25.00
2018-07-27T03:38:03.245Z,25.10
2018-07-27T03:40:31.584Z,25.10
2018-07-27T03:42:59.982Z,25.00
2018-07-27T03:45:28.358Z,24.70
2018-07-27T03:47:56.718Z,24.80
2018-07-27T03:50:25.094Z,24.80
2018-07-27T03:52:53.442Z,24.70
2018-07-27T03:55:21.810Z,24.70
2018-07-27T03:57:50.225Z,24.60
2018-07-27T04:00:18.598Z,24.50
2018-07-27T04:02:46.998Z,24.30
2018-07-27T04:05:15.362Z,24.50
2018-07-27T04:07:43.778Z,24.30
2018-07-27T04:10:12.109Z,24.10
2018-07-27T04:12:40.464Z,24.20
2018-07-27T04:15:08.865Z,24.20
2018-07-27T04:17:37.212Z,24.10
2018-07-27T04:20:05.718Z,24.30
2018-07-27T04:22:34.098Z,24.50
2018-07-27T04:25:02.455Z,24.50
2018-07-27T04:27:30.855Z,24.60
2018-07-27T04:29:59.244Z,24.70
2018-07-27T04:32:27.603Z,24.70
2018-07-27T04:34:55.987Z,24.70
2018-07-27T04:37:24.368Z,24.80
2018-07-27T04:39:52.880Z,24.90
2018-07-27T04:42:21.270Z,24.90
2018-07-27T04:44:49.621Z,24.80
2018-07-27T04:47:18.069Z,24.80
2018-07-27T04:49:46.477Z,24.90
2018-07-27T04:52:14.877Z,24.70
2018-07-27T04:54:43.265Z,24.90
2018-07-27T04:57:11.612Z,25.00
2018-07-27T04:59:40.009Z,24.90
2018-07-27T05:02:08.433Z,24.80
2018-07-27T05:04:36.907Z,25.00
2018-07-27T05:07:05.282Z,24.90
2018-07-27T05:09:33.701Z,24.90
2018-07-27T05:12:02.398Z,24.90
2018-07-27T05:14:30.756Z,24.80
2018-07-27T05:16:59.118Z,24.70
2018-07-27T05:19:27.509Z,24.80
2018-07-27T05:21:55.867Z,24.80
2018-07-27T05:24:24.212Z,24.90
2018-07-27T05:26:52.614Z,25.00
2018-07-27T05:29:20.992Z,24.90
2018-07-27T05:31:49.455Z,24.80
2018-07-27T05:34:18.042Z,24.90
2018-07-27T05:36:46.433Z,24.90
2018-07-27T05:39:14.843Z,24.90
2018-07-27T05:41:43.248Z,24.90
2018-07-27T05:44:11.646Z,25.10
2018-07-27T05:46:40.099Z,25.00
2018-07-27T05:49:08.486Z,25.00
2018-07-27T05:51:36.899Z,25.30
2018-07-27T05:54:05.433Z,25.50
2018-07-27T05:56:33.839Z,25.50
2018-07-27T05:59:02.202Z,25.60
2018-07-27T06:01:30.650Z,25.50
2018-07-27T06:03:59.024Z,25.60
2018-07-27T06:06:27.382Z,25.60
2018-07-27T06:08:55.774Z,25.70
2018-07-27T06:11:24.140Z,25.80
2018-07-27T06:13:52.721Z,26.00
2018-07-27T06:16:21.120Z,26.00
2018-07-27T06:18:49.477Z,26.20
2018-07-27T06:21:17.874Z,26.20
2018-07-27T06:23:46.251Z,26.30
2018-07-27T06:26:14.842Z,26.40
2018-07-27T06:28:43.267Z,26.40
2018-07-27T06:31:11.618Z,26.50
2018-07-27T06:33:40.169Z,26.60
2018-07-27T06:36:08.553Z,26.60
2018-07-27T06:38:36.917Z,26.70
2018-07-27T06:41:05.657Z,26.70
2018-07-27T06:43:34.025Z,26.90
2018-07-27T06:46:02.384Z,26.90
2018-07-27T06:48:30.801Z,27.00
2018-07-27T06:50:59.162Z,27.00
2018-07-27T06:53:27.521Z,27.10
2018-07-27T06:55:56.057Z,27.20
2018-07-27T06:58:24.412Z,27.30
2018-07-27T07:00:52.776Z,27.40
2018-07-27T07:03:21.353Z,27.50
2018-07-27T07:05:50.093Z,27.60
2018-07-27T07:08:18.456Z,27.70
2018-07-27T07:10:46.859Z,27.70
2018-07-27T07:13:15.213Z,27.80
2018-07-27T07:15:43.600Z,27.90
2018-07-27T07:18:11.998Z,27.90
2018-07-27T07:20:40.362Z,28.00
2018-07-27T07:23:08.734Z,28.10
2018-07-27T07:25:37.260Z,28.20
2018-07-27T07:28:05.583Z,28.30
2018-07-27T07:30:33.929Z,28.50
2018-07-27T07:33:02.320Z,28.50
2018-07-27T07:35:30.686Z,28.70
2018-07-27T07:37:59.080Z,29.00
2018-07-27T07:40:27.453Z,29.40
2018-07-27T07:42:55.822Z,30.00
2018-07-27T07:45:24.208Z,30.60
2018-07-27T07:47:52.628Z,31.40
2018-07-27T07:50:20.994Z,31.90
2018-07-27T07:52:49.370Z,32.50
2018-07-27T07:55:17.737Z,33.00
2018-07-27T07:57:46.106Z,33.50
2018-07-27T08:00:14.593Z,34.00
2018-07-27T08:02:43.004Z,34.50
2018-07-27T08:05:11.371Z,34.80
2018-07-27T08:07:39.757Z,35.00
2018-07-27T08:10:08.284Z,35.20
2018-07-27T08:12:36.634Z,35.50
2018-07-27T08:15:05.385Z,35.50
2018-07-27T08:17:33.771Z,35.30
2018-07-27T08:20:02.131Z,34.90
2018-07-27T08:22:30.489Z,34.70
2018-07-27T08:27:26.957Z,34.20
2018-07-27T08:32:23.446Z,33.90
2018-07-27T08:34:51.828Z,33.80
2018-07-27T08:37:20.197Z,33.70
2018-07-27T08:39:48.591Z,33.70
2018-07-27T08:42:16.964Z,33.70
2018-07-27T08:44:45.334Z,33.50
2018-07-27T08:47:13.749Z,33.30
2018-07-27T08:49:42.261Z,33.30
2018-07-27T08:52:10.625Z,33.20
2018-07-27T08:54:39.010Z,33.00
2018-07-27T08:57:07.410Z,32.90
2018-07-27T08:59:35.807Z,32.90
2018-07-27T09:02:04.463Z,33.00
2018-07-27T09:04:32.805Z,32.90
2018-07-27T09:07:01.157Z,32.80
2018-07-27T09:09:29.543Z,32.60
2018-07-27T09:11:57.893Z,32.60
2018-07-27T09:14:26.262Z,32.60
2018-07-27T09:16:54.650Z,32.60
2018-07-27T09:19:22.987Z,32.60
2018-07-27T09:21:51.355Z,32.60
2018-07-27T09:24:19.964Z,32.70
2018-07-27T09:26:48.303Z,32.80
2018-07-27T09:29:16.664Z,32.80
2018-07-27T09:31:45.188Z,32.80
2018-07-27T09:34:13.611Z,32.80
2018-07-27T09:36:41.913Z,32.90
2018-07-27T09:39:11.109Z,32.90
2018-07-27T09:41:39.461Z,32.80
2018-07-27T09:44:08.068Z,33.00
2018-07-27T09:46:36.536Z,32.90
2018-07-27T09:49:04.992Z,33.00
2018-07-27T09:51:33.380Z,33.20
2018-07-27T09:54:01.791Z,33.30
2018-07-27T09:56:30.153Z,33.20
2018-07-27T09:58:58.533Z,33.10
2018-07-27T10:01:28.221Z,33.10
2018-07-27T10:03:56.613Z,33.20
2018-07-27T10:06:24.997Z,33.30
2018-07-27T10:08:53.396Z,33.30
2018-07-27T10:11:22.103Z,33.50
2018-07-27T10:13:50.494Z,33.50
2018-07-27T10:16:18.846Z,33.70
2018-07-27T10:18:47.305Z,33.60
2018-07-27T10:21:15.646Z,33.80
2018-07-27T10:23:44.022Z,33.90
2018-07-27T10:26:12.417Z,34.00
2018-07-27T10:28:40.850Z,34.00
2018-07-27T10:31:09.222Z,34.00
2018-07-27T10:33:37.594Z,34.00
2018-07-27T10:36:06.095Z,34.10
2018-07-27T10:38:34.482Z,34.20
2018-07-27T10:41:02.840Z,34.30
2018-07-27T10:43:31.179Z,34.50
2018-07-27T10:45:59.526Z,34.40
2018-07-27T10:50:56.093Z,34.80
2018-07-27T10:53:24.479Z,35.10
2018-07-27T10:55:52.909Z,35.00
2018-07-27T10:58:21.253Z,35.00
2018-07-27T11:00:49.625Z,35.20
2018-07-27T11:03:18.017Z,35.30
2018-07-27T11:05:46.372Z,35.50
2018-07-27T11:08:14.721Z,35.80
2018-07-27T11:10:43.198Z,36.00
2018-07-27T11:13:11.582Z,36.10
2018-07-27T11:15:39.954Z,36.20
2018-07-27T11:18:08.342Z,36.20
2018-07-27T11:20:36.703Z,36.10
2018-07-27T11:25:33.354Z,35.80
2018-07-27T11:28:01.693Z,35.40
2018-07-27T11:30:30.014Z,35.10
2018-07-27T11:32:58.406Z,34.80
2018-07-27T11:35:26.785Z,34.70
2018-07-27T11:37:55.318Z,34.60
2018-07-27T11:40:23.674Z,34.50
2018-07-27T11:42:52.035Z,34.50
2018-07-27T11:45:20.436Z,34.30
2018-07-27T11:47:48.777Z,34.10
2018-07-27T11:50:17.129Z,33.90
2018-07-27T11:52:45.557Z,33.80
2018-07-27T11:55:13.908Z,33.80
2018-07-27T11:57:42.275Z,33.80
2018-07-27T12:00:10.676Z,33.80
2018-07-27T12:02:39.041Z,33.90
2018-07-27T12:05:07.395Z,33.90
2018-07-27T12:07:35.922Z,33.90
2018-07-27T12:10:04.499Z,33.80
2018-07-27T12:12:32.839Z,33.70
2018-07-27T12:15:01.410Z,33.70
2018-07-27T12:17:29.622Z,33.70
2018-07-27T12:19:57.986Z,33.60
2018-07-27T12:22:26.534Z,33.60
2018-07-27T12:24:54.886Z,33.70
2018-07-27T12:27:23.270Z,33.70
2018-07-27T12:29:51.795Z,33.80
2018-07-27T12:32:20.165Z,33.70
2018-07-27T12:34:48.521Z,33.70
2018-07-27T12:37:17.067Z,33.70
2018-07-27T12:39:45.414Z,33.80
2018-07-27T12:42:13.834Z,33.80
2018-07-27T12:44:42.226Z,33.70
2018-07-27T12:47:10.619Z,33.60
2018-07-27T12:49:39.012Z,33.60
2018-07-27T12:52:07.378Z,33.40
2018-07-27T12:54:35.738Z,33.40
2018-07-27T12:57:04.146Z,33.40
2018-07-27T12:59:32.524Z,33.30
2018-07-27T13:02:00.855Z,33.30
2018-07-27T13:04:29.243Z,33.40
2018-07-27T13:06:57.633Z,33.30
2018-07-27T13:09:26.026Z,33.40
2018-07-27T13:11:54.382Z,33.40
2018-07-27T13:14:22.747Z,33.40
2018-07-27T13:16:51.121Z,33.40
2018-07-27T13:19:19.477Z,33.50
2018-07-27T13:21:47.946Z,33.50
2018-07-27T13:24:16.316Z,33.60
2018-07-27T13:26:44.718Z,33.60
2018-07-27T13:29:13.169Z,33.60
2018-07-27T13:34:53.958Z,33.60
2018-07-27T13:37:23.638Z,33.50
2018-07-27T13:42:23.276Z,33.30
2018-07-27T13:44:51.641Z,33.20
2018-07-27T13:47:20.506Z,33.20
2018-07-27T13:49:49.005Z,33.20
2018-07-27T13:52:17.362Z,33.30
2018-07-27T13:54:45.775Z,33.30
2018-07-27T13:57:14.184Z,33.30
2018-07-27T13:59:42.573Z,33.30
2018-07-27T14:02:11.553Z,33.30
2018-07-27T14:04:39.937Z,33.30
2018-07-27T14:07:09.489Z,33.40
2018-07-27T14:09:37.854Z,33.40
2018-07-27T14:12:06.292Z,33.30
2018-07-27T14:14:34.701Z,33.30
2018-07-27T14:17:03.054Z,33.30
2018-07-27T14:19:31.385Z,33.30
2018-07-27T14:21:59.773Z,33.30
2018-07-27T14:24:28.138Z,33.40
2018-07-27T14:26:56.518Z,33.30
2018-07-27T14:29:25.038Z,33.30
2018-07-27T14:31:53.410Z,33.30
2018-07-27T14:34:21.753Z,33.20
2018-07-27T14:36:50.163Z,33.20
2018-07-27T14:39:18.545Z,33.30
2018-07-27T14:41:46.953Z,33.30
2018-07-27T14:44:15.351Z,33.30
2018-07-27T14:46:43.873Z,33.30
2018-07-27T14:49:14.594Z,33.30
2018-07-27T14:51:43.394Z,33.30
2018-07-27T14:54:12.953Z,33.30
2018-07-27T14:56:41.887Z,33.30
2018-07-27T14:59:10.926Z,33.40
2018-07-27T15:01:40.275Z,33.30
2018-07-27T15:04:09.255Z,33.30
2018-07-27T15:06:37.812Z,33.30
2018-07-27T15:09:10.875Z,33.30
2018-07-27T15:11:39.269Z,33.30
2018-07-27T15:14:07.679Z,33.20
2018-07-27T15:16:36.094Z,33.20
2018-07-27T15:19:04.690Z,33.20
2018-07-27T15:21:33.054Z,33.10
2018-07-27T15:24:01.414Z,33.10
2018-07-27T15:26:29.973Z,33.10
2018-07-27T15:28:58.361Z,33.10
2018-07-27T15:31:26.709Z,33.10
2018-07-27T15:33:55.253Z,33.20
2018-07-27T15:36:23.593Z,33.20
2018-07-27T15:38:51.957Z,33.20
2018-07-27T15:41:20.503Z,33.20
2018-07-27T15:43:48.909Z,33.20
2018-07-27T15:46:17.290Z,33.20
2018-07-27T15:48:45.817Z,33.20
2018-07-27T15:51:14.218Z,33.20
2018-07-27T15:53:42.572Z,33.20
2018-07-27T15:56:10.981Z,33.20
2018-07-27T15:58:39.384Z,33.20
2018-07-27T16:01:07.792Z,33.20
2018-07-27T16:03:36.235Z,33.20
2018-07-27T16:06:04.615Z,33.30
2018-07-27T16:08:33.182Z,33.30
2018-07-27T16:11:01.608Z,33.20
2018-07-27T16:13:30.065Z,33.20
2018-07-27T16:15:58.515Z,33.20
2018-07-27T16:18:26.958Z,33.20
2018-07-27T16:20:55.527Z,33.10
2018-07-27T16:23:23.897Z,33.10
2018-07-27T16:25:52.262Z,33.20
2018-07-27T16:28:20.674Z,33.20
2018-07-27T16:30:49.115Z,33.20
2018-07-27T16:33:17.470Z,33.20
2018-07-27T16:35:50.157Z,33.20
2018-07-27T16:38:18.537Z,33.20
2018-07-27T16:40:46.912Z,33.10
2018-07-27T16:43:15.339Z,33.20
2018-07-27T16:45:43.855Z,33.20
2018-07-27T16:48:12.289Z,33.20
2018-07-27T16:50:40.871Z,33.20
2018-07-27T16:53:09.257Z,33.20
2018-07-27T16:55:37.663Z,33.20
2018-07-27T16:58:06.111Z,33.20
2018-07-27T17:00:34.565Z,33.20
2018-07-27T17:03:02.947Z,33.20
2018-07-27T17:05:31.373Z,33.20
2018-07-27T17:10:27.852Z,33.00
2018-07-27T17:12:56.533Z,33.10
2018-07-27T17:15:24.912Z,33.10
2018-07-27T17:17:53.285Z,33.10
2018-07-27T17:20:21.679Z,33.10
2018-07-27T17:22:50.045Z,33.10
2018-07-27T17:25:18.913Z,33.20
2018-07-27T17:27:47.233Z,33.20
2018-07-27T17:30:15.602Z,33.20
2018-07-27T17:32:44.213Z,33.20
2018-07-27T17:35:12.608Z,33.20
2018-07-27T17:37:41.001Z,33.10
2018-07-27T17:40:09.753Z,33.10
2018-07-27T17:42:38.195Z,33.10
2018-07-27T17:45:07.529Z,33.10
2018-07-27T17:47:36.121Z,33.00
2018-07-27T17:50:04.753Z,33.00
2018-07-27T17:52:33.174Z,33.00
2018-07-27T17:55:01.592Z,33.00
2018-07-27T17:57:29.963Z,33.00
2018-07-27T17:59:58.337Z,33.00
2018-07-27T18:02:26.918Z,33.00
2018-07-27T18:04:55.298Z,32.90
2018-07-27T18:07:23.767Z,32.80
2018-07-27T18:09:52.257Z,32.80
2018-07-27T18:12:20.611Z,32.80
2018-07-27T18:14:48.985Z,32.80
2018-07-27T18:17:17.442Z,32.80
2018-07-27T18:19:45.834Z,32.80
2018-07-27T18:22:14.220Z,32.80
2018-07-27T18:24:42.717Z,32.70
2018-07-27T18:27:11.149Z,32.70
2018-07-27T18:29:40.023Z,32.70
2018-07-27T18:32:08.608Z,32.70
2018-07-27T18:34:37.011Z,32.70
2018-07-27T18:37:05.386Z,32.60
2018-07-27T18:39:33.840Z,32.60
2018-07-27T18:42:02.215Z,32.70
2018-07-27T18:44:30.606Z,32.60
2018-07-27T18:49:27.067Z,32.70
2018-07-27T18:51:55.589Z,32.60
2018-07-27T18:54:24.023Z,32.60
2018-07-27T18:56:52.422Z,32.60
2018-07-27T18:59:20.798Z,32.40
2018-07-27T19:01:49.353Z,32.10
2018-07-27T19:04:17.729Z,31.90
2018-07-27T19:06:46.154Z,31.70
2018-07-27T19:09:14.521Z,31.60
2018-07-27T19:14:11.052Z,31.40
2018-07-27T19:16:39.446Z,31.40
2018-07-27T19:19:08.145Z,31.40
2018-07-27T19:21:36.706Z,31.30
2018-07-27T19:24:05.073Z,31.30
2018-07-27T19:26:33.450Z,31.30
2018-07-27T19:29:01.889Z,31.30
2018-07-27T19:31:30.285Z,31.20
2018-07-27T19:33:58.670Z,31.20
2018-07-27T19:36:27.038Z,31.10
2018-07-27T19:38:55.373Z,31.00
2018-07-27T19:41:23.901Z,30.90
2018-07-27T19:43:52.363Z,30.80
2018-07-27T19:46:20.699Z,30.80
2018-07-27T19:48:49.109Z,30.70
2018-07-27T19:51:17.560Z,30.70
2018-07-27T19:53:45.979Z,30.70
2018-07-27T19:56:14.333Z,30.60
2018-07-27T19:58:42.679Z,30.50
2018-07-27T20:01:11.107Z,30.40
2018-07-27T20:03:39.489Z,30.30
2018-07-27T20:06:08.026Z,30.20
2018-07-27T20:08:36.407Z,30.20
2018-07-27T20:11:04.807Z,30.20
2018-07-27T20:13:33.224Z,30.10
2018-07-27T20:16:01.589Z,30.00
2018-07-27T20:18:30.029Z,30.00
2018-07-27T20:20:58.607Z,29.90
2018-07-27T20:23:27.170Z,29.80
2018-07-27T20:25:56.480Z,29.70
2018-07-27T20:28:25.073Z,29.70
2018-07-27T20:30:53.530Z,29.70
2018-07-27T20:33:21.917Z,29.60
2018-07-27T20:35:50.333Z,29.60
2018-07-27T20:38:18.682Z,29.50
2018-07-27T20:40:47.120Z,29.60
2018-07-27T20:43:15.467Z,29.50
2018-07-27T20:45:43.946Z,29.50
2018-07-27T20:48:12.397Z,29.40
2018-07-27T20:50:40.737Z,29.40
2018-07-27T20:53:09.149Z,29.40
2018-07-27T20:55:37.517Z,29.30
2018-07-27T20:58:05.935Z,29.30
2018-07-27T21:00:34.402Z,29.30
2018-07-27T21:03:02.801Z,29.30
2018-07-27T21:05:31.205Z,29.10
2018-07-27T21:07:59.592Z,29.00
2018-07-27T21:10:28.097Z,29.00
2018-07-27T21:12:56.462Z,29.00
2018-07-27T21:15:24.802Z,29.00
2018-07-27T21:17:53.187Z,28.90
2018-07-27T21:20:21.533Z,28.90
2018-07-27T21:22:49.887Z,28.90
2018-07-27T21:25:18.262Z,28.90
2018-07-27T21:27:46.657Z,28.80
2018-07-27T21:30:15.050Z,28.80
2018-07-27T21:32:43.400Z,28.80
2018-07-27T21:35:11.784Z,28.70
2018-07-27T21:37:40.202Z,28.70
2018-07-27T21:40:08.565Z,28.80
2018-07-27T21:42:36.938Z,28.80
2018-07-27T21:45:05.834Z,28.70
2018-07-27T21:47:34.246Z,28.60
2018-07-27T21:50:02.682Z,28.60
2018-07-27T21:52:31.093Z,28.60
2018-07-27T21:54:59.603Z,28.60
2018-07-27T21:57:28.041Z,28.50
2018-07-27T21:59:56.417Z,28.40
2018-07-27T22:02:24.763Z,28.40
2018-07-27T22:04:53.304Z,28.40
2018-07-27T22:07:21.692Z,28.30
2018-07-27T22:09:50.102Z,28.30
2018-07-27T22:12:18.495Z,28.40
2018-07-27T22:14:46.844Z,28.30
2018-07-27T22:17:15.210Z,28.30
2018-07-27T22:19:43.563Z,28.40
2018-07-27T22:22:11.921Z,28.30
2018-07-27T22:24:40.326Z,28.20
2018-07-27T22:27:08.691Z,28.20
2018-07-27T22:29:37.057Z,28.20
2018-07-27T22:32:05.521Z,28.10
2018-07-27T22:34:33.973Z,28.20
2018-07-27T22:37:02.371Z,28.20
2018-07-27T22:39:30.794Z,28.10
2018-07-27T22:41:59.281Z,28.20
2018-07-27T22:44:27.647Z,28.20
2018-07-27T22:46:56.043Z,28.20
2018-07-27T22:49:24.414Z,28.10
2018-07-27T22:51:52.778Z,28.10
2018-07-27T22:54:21.215Z,28.10
2018-07-27T22:56:49.601Z,28.10
2018-07-27T22:59:17.958Z,27.90
2018-07-27T23:01:46.351Z,27.90
2018-07-27T23:04:14.722Z,27.90
2018-07-27T23:06:43.108Z,28.00
2018-07-27T23:09:12.044Z,27.90
2018-07-27T23:11:40.418Z,28.00
2018-07-27T23:14:08.854Z,28.00
2018-07-27T23:16:37.322Z,28.00
2018-07-27T23:19:05.745Z,28.00
2018-07-27T23:21:34.349Z,28.00
2018-07-27T23:24:02.868Z,28.10
2018-07-27T23:26:31.582Z,28.00
2018-07-27T23:29:00.177Z,27.80
2018-07-27T23:31:28.741Z,27.80
2018-07-27T23:33:57.240Z,28.00
2018-07-27T23:36:25.617Z,28.00
2018-07-27T23:38:54.190Z,27.90
2018-07-27T23:41:22.545Z,27.90
2018-07-27T23:43:50.917Z,28.00
2018-07-27T23:46:19.322Z,28.10
2018-07-27T23:48:47.681Z,27.90
2018-07-27T23:51:16.045Z,27.80
2018-07-27T23:56:12.545Z,27.60
2018-07-27T23:58:40.896Z,27.50
